createdAt,value
2019-02-09T00:00:32.628Z,56.73
2019-02-09T00:03:06.827Z,54.93
2019-02-09T00:05:38.489Z,49.30
2019-02-09T00:08:10.602Z,52.03
2019-02-09T00:10:44.221Z,50.37
2019-02-09T00:13:15.674Z,47.53
2019-02-09T00:15:47.328Z,50.93
2019-02-09T00:18:19.112Z,51.10
2019-02-09T00:20:50.974Z,50.53
2019-02-09T00:23:25.883Z,58.03
2019-02-09T00:25:57.176Z,46.90
2019-02-09T00:28:28.798Z,51.23
2019-02-09T00:31:00.290Z,47.50
2019-02-09T00:33:33.758Z,43.77
2019-02-09T00:36:06.451Z,40.07
2019-02-09T00:38:38.184Z,42.43
2019-02-09T00:41:09.705Z,48.53
2019-02-09T00:43:42.039Z,46.73
2019-02-09T00:46:13.620Z,41.90
2019-02-09T00:48:46.862Z,43.13
2019-02-09T00:51:18.535Z,45.60
2019-02-09T00:53:52.791Z,47.53
2019-02-09T00:56:24.664Z,45.13
2019-02-09T00:58:56.089Z,51.87
2019-02-09T01:01:27.739Z,47.77
2019-02-09T01:04:00.495Z,50.63
2019-02-09T01:06:31.882Z,39.40
2019-02-09T01:09:06.334Z,37.30
2019-02-09T01:11:37.938Z,36.23
2019-02-09T01:14:11.704Z,38.33
2019-02-09T01:16:46.612Z,40.17
2019-02-09T01:19:18.284Z,39.23
2019-02-09T01:21:50.108Z,32.13
2019-02-09T01:24:21.732Z,39.80
2019-02-09T01:26:53.277Z,38.40
2019-02-09T01:29:24.992Z,41.30
2019-02-09T01:31:56.833Z,43.70
2019-02-09T01:34:28.869Z,41.10
2019-02-09T01:37:00.729Z,39.53
2019-02-09T01:39:32.793Z,40.87
2019-02-09T01:42:11.879Z,41.97
2019-02-09T01:44:43.529Z,38.87
2019-02-09T01:47:15.219Z,36.43
2019-02-09T01:49:46.671Z,34.50
2019-02-09T01:52:18.300Z,43.40
2019-02-09T01:54:50.582Z,52.97
2019-02-09T01:57:22.705Z,39.93
2019-02-09T01:59:54.522Z,40.20
2019-02-09T02:02:26.286Z,33.10
2019-02-09T02:04:59.202Z,33.47
2019-02-09T02:07:31.004Z,30.20
2019-02-09T02:10:04.971Z,31.70
2019-02-09T02:12:36.813Z,30.20
2019-02-09T02:15:11.909Z,29.90
2019-02-09T02:17:43.599Z,27.47
2019-02-09T02:20:18.110Z,30.70
2019-02-09T02:22:50.973Z,30.30
2019-02-09T02:25:23.738Z,33.03
2019-02-09T02:27:57.871Z,26.40
2019-02-09T02:30:31.800Z,33.17
2019-02-09T02:33:03.975Z,29.63
2019-02-09T02:35:37.635Z,29.50
2019-02-09T02:38:10.303Z,37.70
2019-02-09T02:40:41.968Z,35.27
2019-02-09T02:43:13.914Z,28.60
2019-02-09T02:45:47.456Z,34.13
2019-02-09T02:48:20.922Z,29.27
2019-02-09T02:50:55.095Z,34.80
2019-02-09T02:53:26.886Z,40.93
2019-02-09T02:55:58.681Z,42.83
2019-02-09T02:58:30.169Z,43.97
2019-02-09T03:01:02.116Z,49.07
2019-02-09T03:03:35.919Z,38.10
2019-02-09T03:06:07.563Z,48.37
2019-02-09T03:08:39.843Z,39.57
2019-02-09T03:11:11.712Z,41.83
2019-02-09T03:13:43.409Z,39.07
2019-02-09T03:16:14.890Z,43.10
2019-02-09T03:18:46.144Z,43.87
2019-02-09T03:21:17.694Z,40.40
2019-02-09T03:23:49.112Z,47.23
2019-02-09T03:26:21.520Z,45.27
2019-02-09T03:28:53.061Z,44.23
2019-02-09T03:31:24.953Z,40.03
2019-02-09T03:34:03.634Z,37.87
2019-02-09T03:36:35.197Z,42.77
2019-02-09T03:39:09.553Z,43.20
2019-02-09T03:41:41.052Z,43.50
2019-02-09T03:44:12.836Z,37.87
2019-02-09T03:46:44.958Z,33.77
2019-02-09T03:49:16.250Z,37.73
2019-02-09T03:51:47.967Z,34.40
2019-02-09T03:54:19.619Z,33.73
2019-02-09T03:56:51.186Z,34.87
2019-02-09T03:59:23.540Z,33.37
2019-02-09T04:01:57.090Z,32.23
2019-02-09T04:04:28.516Z,38.13
2019-02-09T04:07:04.017Z,30.03
2019-02-09T04:09:35.880Z,28.53
2019-02-09T04:12:07.636Z,31.27
2019-02-09T04:14:39.327Z,35.07
2019-02-09T04:17:11.158Z,32.47
2019-02-09T04:19:44.404Z,29.40
2019-02-09T04:22:16.353Z,29.77
2019-02-09T04:24:48.379Z,32.27
2019-02-09T04:27:19.868Z,29.83
2019-02-09T04:29:51.425Z,33.00
2019-02-09T04:32:23.739Z,31.53
2019-02-09T04:34:55.338Z,29.40
2019-02-09T04:37:26.765Z,29.17
2019-02-09T04:39:58.310Z,27.47
2019-02-09T04:42:30.422Z,33.13
2019-02-09T04:45:01.943Z,29.50
2019-02-09T04:47:33.324Z,29.90
2019-02-09T04:50:05.582Z,29.90
2019-02-09T04:52:38.772Z,28.27
2019-02-09T04:55:13.384Z,30.30
2019-02-09T04:57:44.811Z,27.13
2019-02-09T05:00:20.769Z,30.13
2019-02-09T05:02:53.122Z,31.40
2019-02-09T05:05:25.293Z,31.63
2019-02-09T05:07:58.446Z,33.73
2019-02-09T05:10:30.168Z,35.50
2019-02-09T05:13:04.431Z,35.10
2019-02-09T05:15:38.163Z,34.80
2019-02-09T05:18:10.539Z,43.83
2019-02-09T05:20:42.064Z,33.47
2019-02-09T05:23:13.498Z,41.03
2019-02-09T05:25:44.910Z,34.47
2019-02-09T05:28:16.257Z,39.70
2019-02-09T05:30:47.813Z,33.67
2019-02-09T05:33:19.631Z,32.70
2019-02-09T05:35:51.721Z,33.10
2019-02-09T05:38:26.234Z,28.47
2019-02-09T05:40:58.136Z,32.57
2019-02-09T05:43:30.387Z,26.00
2019-02-09T05:46:03.723Z,27.87
2019-02-09T05:48:35.519Z,30.70
2019-02-09T05:51:08.769Z,27.33
2019-02-09T05:53:40.390Z,29.17
2019-02-09T05:56:13.071Z,29.03
2019-02-09T05:58:44.606Z,29.67
2019-02-09T06:01:18.053Z,29.57
2019-02-09T06:03:49.560Z,29.23
2019-02-09T06:06:21.354Z,32.83
2019-02-09T06:08:53.616Z,31.23
2019-02-09T06:11:25.475Z,33.07
2019-02-09T06:13:57.369Z,29.67
2019-02-09T06:16:30.773Z,32.93
2019-02-09T06:19:02.527Z,30.57
2019-02-09T06:21:33.911Z,33.17
2019-02-09T06:24:05.590Z,32.57
2019-02-09T06:26:37.251Z,29.83
2019-02-09T06:29:10.128Z,35.27
2019-02-09T06:31:41.667Z,34.77
2019-02-09T06:34:13.514Z,32.30
2019-02-09T06:36:45.162Z,31.53
2019-02-09T06:39:16.446Z,34.77
2019-02-09T06:41:47.971Z,38.00
2019-02-09T06:44:19.468Z,32.00
2019-02-09T06:46:52.945Z,32.67
2019-02-09T06:49:24.735Z,33.23
2019-02-09T06:51:56.527Z,37.73
2019-02-09T06:54:28.027Z,34.67
2019-02-09T06:57:02.019Z,31.67
2019-02-09T06:59:33.524Z,30.07
2019-02-09T07:02:05.511Z,35.30
2019-02-09T07:04:37.262Z,39.13
2019-02-09T07:07:10.710Z,33.73
2019-02-09T07:09:44.070Z,33.37
2019-02-09T07:12:22.936Z,35.63
2019-02-09T07:14:54.796Z,34.17
2019-02-09T07:17:26.325Z,36.90
2019-02-09T07:19:59.702Z,39.83
2019-02-09T07:22:32.798Z,42.07
2019-02-09T07:25:04.687Z,38.37
2019-02-09T07:27:37.875Z,36.50
2019-02-09T07:30:14.731Z,37.30
2019-02-09T07:32:50.619Z,37.30
2019-02-09T07:35:22.779Z,38.47
2019-02-09T07:37:54.822Z,36.90
2019-02-09T07:40:26.646Z,40.27
2019-02-09T07:42:58.907Z,39.93
2019-02-09T07:45:31.882Z,35.60
2019-02-09T07:48:03.731Z,45.97
2019-02-09T07:50:36.878Z,47.17
2019-02-09T07:53:09.056Z,38.10
2019-02-09T07:55:40.732Z,38.30
2019-02-09T07:58:12.692Z,40.83
2019-02-09T08:00:44.254Z,35.10
2019-02-09T08:03:16.002Z,38.53
2019-02-09T08:05:47.861Z,39.13
2019-02-09T08:08:19.689Z,35.30
2019-02-09T08:10:53.939Z,39.70
2019-02-09T08:13:25.637Z,40.80
2019-02-09T08:15:57.613Z,38.47
2019-02-09T08:18:29.638Z,37.47
2019-02-09T08:21:01.274Z,36.10
2019-02-09T08:23:39.178Z,36.50
2019-02-09T08:26:11.276Z,43.43
2019-02-09T08:28:42.986Z,43.53
2019-02-09T08:31:16.346Z,36.27
2019-02-09T08:33:48.514Z,35.50
2019-02-09T08:36:19.859Z,34.73
2019-02-09T08:38:51.864Z,36.93
2019-02-09T08:41:23.827Z,38.90
2019-02-09T08:43:55.933Z,42.03
2019-02-09T08:46:29.085Z,40.83
2019-02-09T08:49:03.885Z,39.73
2019-02-09T08:51:35.786Z,34.93
2019-02-09T08:54:07.531Z,38.77
2019-02-09T08:56:39.773Z,39.73
2019-02-09T08:59:12.313Z,34.03
2019-02-09T09:01:44.305Z,39.03
2019-02-09T09:04:16.040Z,40.43
2019-02-09T09:06:47.998Z,39.73
2019-02-09T09:09:19.592Z,39.57
2019-02-09T09:11:51.198Z,41.07
2019-02-09T09:14:24.834Z,39.67
2019-02-09T09:16:57.669Z,42.43
2019-02-09T09:19:30.348Z,40.87
2019-02-09T09:22:03.896Z,40.83
2019-02-09T09:24:35.901Z,40.07
2019-02-09T09:27:07.277Z,42.60
2019-02-09T09:29:41.852Z,42.97
2019-02-09T09:32:14.154Z,39.00
2019-02-09T09:34:46.451Z,38.03
2019-02-09T09:37:18.003Z,39.33
2019-02-09T09:39:51.250Z,38.73
2019-02-09T09:42:26.912Z,34.20
2019-02-09T09:44:58.964Z,37.33
2019-02-09T09:47:33.804Z,38.70
2019-02-09T09:50:06.567Z,29.27
2019-02-09T09:52:38.724Z,33.77
2019-02-09T09:55:12.645Z,32.20
2019-02-09T09:57:44.319Z,35.90
2019-02-09T10:00:18.999Z,36.43
2019-02-09T10:02:52.812Z,37.17
2019-02-09T10:05:26.406Z,37.10
2019-02-09T10:07:58.288Z,35.03
2019-02-09T10:10:30.585Z,34.40
2019-02-09T10:13:02.462Z,37.67
2019-02-09T10:15:36.380Z,35.50
2019-02-09T10:18:10.382Z,33.73
2019-02-09T10:20:44.128Z,36.97
2019-02-09T10:23:18.624Z,40.07
2019-02-09T10:25:51.042Z,33.87
2019-02-09T10:28:24.594Z,39.93
2019-02-09T10:30:56.072Z,34.83
2019-02-09T10:33:34.460Z,36.47
2019-02-09T10:36:08.268Z,36.83
2019-02-09T10:38:40.312Z,38.20
2019-02-09T10:41:13.473Z,37.50
2019-02-09T10:43:47.133Z,31.00
2019-02-09T10:46:18.833Z,34.00
2019-02-09T10:48:53.297Z,36.47
2019-02-09T10:51:25.207Z,30.57
2019-02-09T10:53:58.426Z,34.77
2019-02-09T10:56:30.924Z,33.75
2019-02-09T10:59:03.055Z,38.37
2019-02-09T11:01:35.208Z,31.37
2019-02-09T11:04:11.745Z,30.63
2019-02-09T11:06:43.334Z,30.37
2019-02-09T11:09:21.894Z,32.37
2019-02-09T11:11:55.174Z,28.07
2019-02-09T11:14:28.269Z,28.07
2019-02-09T11:17:01.385Z,31.23
2019-02-09T11:19:34.732Z,29.87
2019-02-09T11:22:07.140Z,27.00
2019-02-09T11:24:39.023Z,29.73
2019-02-09T11:27:10.993Z,27.37
2019-02-09T11:29:43.003Z,27.70
2019-02-09T11:32:16.067Z,28.53
2019-02-09T11:34:47.664Z,26.83
2019-02-09T11:37:19.360Z,26.57
2019-02-09T11:39:53.002Z,26.97
2019-02-09T11:42:26.380Z,29.13
2019-02-09T11:44:58.218Z,32.57
2019-02-09T11:47:32.299Z,30.37
2019-02-09T11:50:06.367Z,29.60
2019-02-09T11:52:43.446Z,28.97
2019-02-09T11:55:15.934Z,30.40
2019-02-09T11:57:47.592Z,33.33
2019-02-09T12:00:25.009Z,30.60
2019-02-09T12:03:02.856Z,29.70
2019-02-09T12:05:30.502Z,29.43
2019-02-09T12:08:02.339Z,28.40
2019-02-09T12:10:34.190Z,28.10
2019-02-09T12:13:07.343Z,26.57
2019-02-09T12:15:39.624Z,28.40
2019-02-09T12:18:11.497Z,27.77
2019-02-09T12:20:44.349Z,28.17
2019-02-09T12:23:17.231Z,21.67
2019-02-09T12:25:49.140Z,25.43
2019-02-09T12:28:22.941Z,41.13
2019-02-09T12:30:54.731Z,26.23
2019-02-09T12:33:28.261Z,23.57
2019-02-09T12:35:59.951Z,21.77
2019-02-09T12:38:32.735Z,24.67
2019-02-09T12:41:04.615Z,25.10
2019-02-09T12:43:36.418Z,22.17
2019-02-09T12:46:07.745Z,21.83
2019-02-09T12:48:41.197Z,23.80
2019-02-09T12:51:13.949Z,22.53
2019-02-09T12:53:46.322Z,23.33
2019-02-09T12:56:17.973Z,21.70
2019-02-09T12:58:49.471Z,21.83
2019-02-09T13:01:22.128Z,21.97
2019-02-09T13:03:55.504Z,22.80
2019-02-09T13:06:27.416Z,22.20
2019-02-09T13:09:02.646Z,19.03
2019-02-09T13:11:35.174Z,23.67
2019-02-09T13:14:07.609Z,22.40
2019-02-09T13:16:39.274Z,22.53
2019-02-09T13:19:10.767Z,19.67
2019-02-09T13:21:42.490Z,20.20
2019-02-09T13:24:14.115Z,23.17
2019-02-09T13:26:45.576Z,23.87
2019-02-09T13:29:17.548Z,24.30
2019-02-09T13:31:50.706Z,23.57
2019-02-09T13:34:26.437Z,20.03
2019-02-09T13:36:58.421Z,20.30
2019-02-09T13:39:31.094Z,20.70
2019-02-09T13:42:04.669Z,19.83
2019-02-09T13:44:38.096Z,21.20
2019-02-09T13:47:10.525Z,19.80
2019-02-09T13:49:42.453Z,21.73
2019-02-09T13:52:14.259Z,17.07
2019-02-09T13:54:45.754Z,22.53
2019-02-09T13:57:17.153Z,19.80
2019-02-09T13:59:49.343Z,20.03
2019-02-09T14:02:22.865Z,24.80
2019-02-09T14:04:54.424Z,23.70
2019-02-09T14:07:27.623Z,25.93
2019-02-09T14:10:00.762Z,24.20
2019-02-09T14:12:32.756Z,23.77
2019-02-09T14:15:05.020Z,19.97
2019-02-09T14:17:37.088Z,21.67
2019-02-09T14:20:10.403Z,18.27
2019-02-09T14:22:42.996Z,18.30
2019-02-09T14:25:15.252Z,21.37
2019-02-09T14:27:47.988Z,16.63
2019-02-09T14:30:27.190Z,18.63
2019-02-09T14:33:01.530Z,16.43
2019-02-09T14:35:34.609Z,20.30
2019-02-09T14:38:06.761Z,16.97
2019-02-09T14:40:39.036Z,20.17
2019-02-09T14:43:13.632Z,16.93
2019-02-09T14:45:45.842Z,17.30
2019-02-09T14:48:17.461Z,18.87
2019-02-09T14:50:49.578Z,20.90
2019-02-09T14:53:21.753Z,15.77
2019-02-09T14:55:53.124Z,22.63
2019-02-09T14:58:26.540Z,21.37
2019-02-09T15:00:59.717Z,20.53
2019-02-09T15:03:32.861Z,20.00
2019-02-09T15:06:04.919Z,23.00
2019-02-09T15:08:37.666Z,20.13
2019-02-09T15:11:09.436Z,23.17
2019-02-09T15:13:44.788Z,19.53
2019-02-09T15:16:38.289Z,20.27
2019-02-09T15:19:12.295Z,19.83
2019-02-09T15:21:44.884Z,23.47
2019-02-09T15:24:17.801Z,24.67
2019-02-09T15:26:50.548Z,21.30
2019-02-09T15:29:24.037Z,20.53
2019-02-09T15:31:56.299Z,20.80
2019-02-09T15:34:28.688Z,21.03
2019-02-09T15:37:01.809Z,22.30
2019-02-09T15:39:34.555Z,20.10
2019-02-09T15:42:06.846Z,18.97
2019-02-09T15:44:40.428Z,25.57
2019-02-09T15:47:12.320Z,22.40
2019-02-09T15:49:43.824Z,21.93
2019-02-09T15:52:15.290Z,25.23
2019-02-09T15:54:47.551Z,22.20
2019-02-09T15:57:19.826Z,21.53
2019-02-09T15:59:53.086Z,21.77
2019-02-09T16:02:26.452Z,23.00
2019-02-09T16:05:00.427Z,20.30
2019-02-09T16:07:32.246Z,21.17
2019-02-09T16:10:05.102Z,19.60
2019-02-09T16:12:36.829Z,21.30
2019-02-09T16:15:11.164Z,19.83
2019-02-09T16:17:42.718Z,18.77
2019-02-09T16:20:16.915Z,15.23
2019-02-09T16:22:48.727Z,20.60
2019-02-09T16:25:20.610Z,20.93
2019-02-09T16:27:52.226Z,21.60
2019-02-09T16:30:25.527Z,21.27
2019-02-09T16:32:58.877Z,20.97
2019-02-09T16:35:31.052Z,21.50
2019-02-09T16:38:04.799Z,28.43
2019-02-09T16:40:36.373Z,22.70
2019-02-09T16:43:09.098Z,23.87
2019-02-09T16:45:42.634Z,25.30
2019-02-09T16:48:14.273Z,23.57
2019-02-09T16:50:46.070Z,26.83
2019-02-09T16:53:18.219Z,22.70
2019-02-09T16:55:50.791Z,26.30
2019-02-09T16:58:22.791Z,23.70
2019-02-09T17:00:56.310Z,24.73
2019-02-09T17:03:28.189Z,22.80
2019-02-09T17:06:00.513Z,22.27
2019-02-09T17:08:32.606Z,25.30
2019-02-09T17:11:04.495Z,22.47
2019-02-09T17:13:36.233Z,19.83
2019-02-09T17:16:07.884Z,22.97
2019-02-09T17:18:39.485Z,18.03
2019-02-09T17:21:11.604Z,15.70
2019-02-09T17:23:43.312Z,16.90
2019-02-09T17:26:16.384Z,15.23
2019-02-09T17:28:49.625Z,15.03
2019-02-09T17:31:24.603Z,15.73
2019-02-09T17:33:56.285Z,20.40
2019-02-09T17:36:29.483Z,19.57
2019-02-09T17:39:03.503Z,21.13
2019-02-09T17:41:35.858Z,20.30
2019-02-09T17:44:08.629Z,15.27
2019-02-09T17:46:43.344Z,15.80
2019-02-09T17:49:14.896Z,14.07
2019-02-09T17:51:48.290Z,18.17
2019-02-09T17:54:19.911Z,13.70
2019-02-09T17:56:51.224Z,16.70
2019-02-09T17:59:25.907Z,13.47
2019-02-09T18:02:00.625Z,18.77
2019-02-09T18:04:35.370Z,19.37
2019-02-09T18:07:07.134Z,19.30
2019-02-09T18:09:39.643Z,15.40
2019-02-09T18:12:12.281Z,17.20
2019-02-09T18:14:43.970Z,16.33
2019-02-09T18:17:15.831Z,17.43
2019-02-09T18:19:48.917Z,17.63
2019-02-09T18:22:21.416Z,16.33
2019-02-09T18:24:53.141Z,18.30
2019-02-09T18:27:25.629Z,17.77
2019-02-09T18:29:56.981Z,15.87
2019-02-09T18:32:29.067Z,16.37
2019-02-09T18:35:00.483Z,17.37
2019-02-09T18:37:32.231Z,18.07
2019-02-09T18:40:07.048Z,16.17
2019-02-09T18:42:40.224Z,18.10
2019-02-09T18:45:15.339Z,15.50
2019-02-09T18:47:48.544Z,16.33
2019-02-09T18:50:23.986Z,15.03
2019-02-09T18:52:57.169Z,15.83
2019-02-09T18:55:29.103Z,16.10
2019-02-09T18:58:00.683Z,15.73
2019-02-09T19:00:33.742Z,15.73
2019-02-09T19:03:07.662Z,12.63
2019-02-09T19:05:39.614Z,15.53
2019-02-09T19:08:11.523Z,14.67
2019-02-09T19:10:42.889Z,17.63
2019-02-09T19:13:14.776Z,18.47
2019-02-09T19:15:46.396Z,19.23
2019-02-09T19:18:19.501Z,14.33
2019-02-09T19:20:54.116Z,16.13
2019-02-09T19:23:25.669Z,11.47
2019-02-09T19:25:57.636Z,15.27
2019-02-09T19:28:31.861Z,11.13
2019-02-09T19:31:03.396Z,11.23
2019-02-09T19:33:37.609Z,12.87
2019-02-09T19:36:10.602Z,9.37
2019-02-09T19:38:42.047Z,13.03
2019-02-09T19:41:13.597Z,13.33
2019-02-09T19:43:45.373Z,11.70
2019-02-09T19:46:17.181Z,13.97
2019-02-09T19:48:48.874Z,14.10
2019-02-09T19:51:20.234Z,14.47
2019-02-09T19:53:51.780Z,14.83
2019-02-09T19:56:23.565Z,11.60
2019-02-09T19:58:55.269Z,12.07
2019-02-09T20:01:26.968Z,11.67
2019-02-09T20:03:58.683Z,11.93
2019-02-09T20:06:30.121Z,10.73
2019-02-09T20:09:01.571Z,9.90
2019-02-09T20:11:36.116Z,10.43
2019-02-09T20:14:07.447Z,10.97
2019-02-09T20:16:39.184Z,10.47
2019-02-09T20:19:10.977Z,13.97
2019-02-09T20:21:42.697Z,8.77
2019-02-09T20:24:14.564Z,9.53
2019-02-09T20:26:46.155Z,10.47
2019-02-09T20:29:17.908Z,11.27
2019-02-09T20:31:49.366Z,12.50
2019-02-09T20:34:21.053Z,13.90
2019-02-09T20:36:52.783Z,12.83
2019-02-09T20:39:25.763Z,13.37
2019-02-09T20:41:57.838Z,12.93
2019-02-09T20:44:29.390Z,14.07
2019-02-09T20:47:01.065Z,12.43
2019-02-09T20:49:32.899Z,14.60
2019-02-09T20:52:04.591Z,11.93
2019-02-09T20:54:36.298Z,12.23
2019-02-09T20:57:08.647Z,12.13
2019-02-09T20:59:40.017Z,15.60
2019-02-09T21:02:12.315Z,9.40
2019-02-09T21:04:43.777Z,16.63
2019-02-09T21:07:15.166Z,14.67
2019-02-09T21:09:46.948Z,11.00
2019-02-09T21:12:18.494Z,11.93
2019-02-09T21:14:50.200Z,9.00
2019-02-09T21:17:22.082Z,10.63
2019-02-09T21:19:53.433Z,8.17
2019-02-09T21:22:25.313Z,8.80
2019-02-09T21:24:56.911Z,10.83
2019-02-09T21:27:28.518Z,12.70
2019-02-09T21:29:59.882Z,8.37
2019-02-09T21:32:31.948Z,15.37
2019-02-09T21:35:04.849Z,9.93
2019-02-09T21:37:36.272Z,9.53
2019-02-09T21:40:10.684Z,11.73
2019-02-09T21:42:42.397Z,11.57
2019-02-09T21:45:16.107Z,10.30
2019-02-09T21:47:47.843Z,13.67
2019-02-09T21:50:24.863Z,8.63
2019-02-09T21:52:56.645Z,9.70
2019-02-09T21:55:27.986Z,11.87
2019-02-09T21:57:59.364Z,15.23
2019-02-09T22:00:36.202Z,13.27
2019-02-09T22:03:13.759Z,9.67
2019-02-09T22:05:51.680Z,10.23
2019-02-09T22:08:19.946Z,7.00
2019-02-09T22:10:51.959Z,10.70
2019-02-09T22:13:29.191Z,7.53
2019-02-09T22:16:00.864Z,11.43
2019-02-09T22:18:32.392Z,13.50
2019-02-09T22:21:03.904Z,12.47
2019-02-09T22:23:35.615Z,15.30
2019-02-09T22:26:12.955Z,9.83
2019-02-09T22:28:40.000Z,7.27
2019-02-09T22:31:11.800Z,7.63
2019-02-09T22:33:43.398Z,10.33
2019-02-09T22:36:14.864Z,11.83
2019-02-09T22:38:46.976Z,13.00
2019-02-09T22:41:19.971Z,10.97
2019-02-09T22:43:52.258Z,10.20
2019-02-09T22:46:23.835Z,10.97
2019-02-09T22:48:55.162Z,10.73
2019-02-09T22:51:26.695Z,10.90
2019-02-09T22:54:03.251Z,10.63
2019-02-09T22:56:34.527Z,8.07
2019-02-09T22:59:06.170Z,9.50
2019-02-09T23:01:47.883Z,14.07
2019-02-09T23:05:03.661Z,11.00
2019-02-09T23:07:36.649Z,14.10
2019-02-09T23:10:13.966Z,9.30
2019-02-09T23:12:48.688Z,8.83
2019-02-09T23:15:20.907Z,8.93
2019-02-09T23:17:53.804Z,8.37
2019-02-09T23:20:26.843Z,11.37
2019-02-09T23:23:00.248Z,11.40
2019-02-09T23:25:33.442Z,13.10
2019-02-09T23:28:05.372Z,13.30
2019-02-09T23:30:38.537Z,9.43
2019-02-09T23:33:16.668Z,10.60
2019-02-09T23:35:50.002Z,8.93
2019-02-09T23:38:21.752Z,9.00
2019-02-09T23:40:53.201Z,9.13
2019-02-09T23:43:25.897Z,10.17
2019-02-09T23:45:57.336Z,8.37
2019-02-09T23:48:28.993Z,10.93
2019-02-09T23:51:00.770Z,6.90
2019-02-09T23:53:32.835Z,6.13
2019-02-09T23:56:05.065Z,10.10
2019-02-09T23:58:36.975Z,7.97
